createdAt,value
2023-01-15T00:00:47.852Z,98006.09
2023-01-15T00:03:51.170Z,98009.31
2023-01-15T00:06:54.850Z,98000.72
2023-01-15T00:09:57.596Z,98004.13
2023-01-15T00:13:00.218Z,98007.41
2023-01-15T00:16:12.433Z,97994.00
2023-01-15T00:19:16.183Z,97999.53
2023-01-15T00:22:18.684Z,97995.09
2023-01-15T00:25:40.228Z,97993.44
2023-01-15T00:28:42.752Z,97994.16
2023-01-15T00:32:02.243Z,97988.81
2023-01-15T00:35:06.480Z,97987.34
2023-01-15T00:38:08.984Z,97977.19
2023-01-15T00:41:11.531Z,97979.47
2023-01-15T00:44:14.357Z,97977.09
2023-01-15T00:47:16.984Z,97975.41
2023-01-15T00:50:19.620Z,97963.16
2023-01-15T00:53:22.322Z,97969.59
2023-01-15T00:56:24.912Z,97968.41
2023-01-15T00:59:28.120Z,97955.00
2023-01-15T01:02:30.852Z,97938.28
2023-01-15T01:05:33.520Z,97934.38
2023-01-15T01:08:36.057Z,97936.84
2023-01-15T01:11:38.640Z,97933.28
2023-01-15T01:14:41.238Z,97933.88
2023-01-15T01:17:43.822Z,97935.13
2023-01-15T01:20:46.322Z,97940.13
2023-01-15T01:23:49.191Z,97935.13
2023-01-15T01:26:54.503Z,97946.41
2023-01-15T01:29:57.394Z,97944.59
2023-01-15T01:32:59.931Z,97938.53
2023-01-15T01:36:02.423Z,97936.69
2023-01-15T01:39:06.180Z,97939.16
2023-01-15T01:42:17.506Z,97928.25
2023-01-15T01:45:31.805Z,97914.97
2023-01-15T01:48:34.618Z,97920.41
2023-01-15T01:51:43.672Z,97902.81
2023-01-15T01:54:47.663Z,97888.34
2023-01-15T01:57:52.238Z,97883.63
2023-01-15T02:00:54.896Z,97892.81
2023-01-15T02:03:57.894Z,97888.34
2023-01-15T02:07:01.385Z,97883.50
2023-01-15T02:10:04.310Z,97874.50
2023-01-15T02:13:17.008Z,97863.06
2023-01-15T02:16:24.629Z,97869.19
2023-01-15T02:19:46.387Z,97862.97
2023-01-15T02:22:57.793Z,97861.63
2023-01-15T02:26:11.274Z,97847.63
2023-01-15T02:29:18.636Z,97849.63
2023-01-15T02:32:33.395Z,97842.06
2023-01-15T02:35:46.546Z,97833.53
2023-01-15T02:38:51.569Z,97834.34
2023-01-15T02:41:57.603Z,97832.28
2023-01-15T02:45:06.564Z,97843.69
2023-01-15T02:48:15.140Z,97844.38
2023-01-15T02:51:23.386Z,97834.97
2023-01-15T02:54:30.214Z,97833.72
2023-01-15T02:57:35.418Z,97833.38
2023-01-15T03:00:41.775Z,97830.56
2023-01-15T03:03:50.531Z,97820.94
2023-01-15T03:07:22.288Z,97821.88
2023-01-15T03:10:36.772Z,97824.34
2023-01-15T03:13:49.409Z,97810.44
2023-01-15T03:17:02.072Z,97806.31
2023-01-15T03:20:17.627Z,97804.44
2023-01-15T03:23:22.349Z,97803.59
2023-01-15T03:26:24.843Z,97786.19
2023-01-15T03:29:35.099Z,97783.59
2023-01-15T03:32:37.818Z,97785.34
2023-01-15T03:35:53.004Z,97798.09
2023-01-15T03:39:05.045Z,97793.84
2023-01-15T03:43:10.943Z,97782.44
2023-01-15T03:46:38.453Z,97798.22
2023-01-15T03:49:53.184Z,97792.41
2023-01-15T03:53:32.441Z,97785.84
2023-01-15T03:56:48.465Z,97781.38
2023-01-15T03:59:55.219Z,97793.28
2023-01-15T04:02:59.128Z,97791.09
2023-01-15T04:06:04.539Z,97788.84
2023-01-15T04:09:09.431Z,97773.88
2023-01-15T04:12:12.739Z,97766.22
2023-01-15T04:15:19.840Z,97764.66
2023-01-15T04:18:22.550Z,97765.84
2023-01-15T04:21:25.278Z,97756.38
2023-01-15T04:24:27.987Z,97748.38
2023-01-15T04:27:30.508Z,97747.97
2023-01-15T04:30:33.917Z,97738.22
2023-01-15T04:33:36.946Z,97734.09
2023-01-15T04:36:39.477Z,97732.13
2023-01-15T04:39:41.978Z,97726.94
2023-01-15T04:43:03.094Z,97711.47
2023-01-15T04:46:05.634Z,97709.91
2023-01-15T04:49:11.701Z,97699.88
2023-01-15T04:52:15.074Z,97702.81
2023-01-15T04:55:18.079Z,97697.84
2023-01-15T04:58:20.613Z,97701.66
2023-01-15T05:01:23.176Z,97691.50
2023-01-15T05:04:26.051Z,97697.84
2023-01-15T05:07:28.544Z,97693.88
2023-01-15T05:10:31.064Z,97696.91
2023-01-15T05:13:34.162Z,97695.94
2023-01-15T05:16:38.394Z,97685.78
2023-01-15T05:19:40.909Z,97687.78
2023-01-15T05:22:43.475Z,97698.16
2023-01-15T05:25:45.989Z,97687.41
2023-01-15T05:28:49.294Z,97673.53
2023-01-15T05:31:51.881Z,97669.25
2023-01-15T05:34:54.411Z,97663.84
2023-01-15T05:37:56.954Z,97660.78
2023-01-15T05:40:59.549Z,97653.69
2023-01-15T05:44:04.886Z,97662.41
2023-01-15T05:47:08.093Z,97646.69
2023-01-15T05:50:11.218Z,97651.53
2023-01-15T05:53:13.717Z,97639.53
2023-01-15T05:56:16.225Z,97642.63
2023-01-15T05:59:20.928Z,97642.13
2023-01-15T06:02:23.514Z,97640.72
2023-01-15T06:05:26.060Z,97635.53
2023-01-15T06:08:28.718Z,97636.72
2023-01-15T06:11:31.368Z,97630.09
2023-01-15T06:14:33.942Z,97636.13
2023-01-15T06:17:36.499Z,97633.63
2023-01-15T06:20:40.054Z,97623.72
2023-01-15T06:23:43.336Z,97622.03
2023-01-15T06:26:46.394Z,97621.38
2023-01-15T06:29:48.915Z,97624.31
2023-01-15T06:32:51.456Z,97625.34
2023-01-15T06:35:54.049Z,97616.97
2023-01-15T06:38:56.751Z,97618.53
2023-01-15T06:42:17.840Z,97622.78
2023-01-15T06:45:39.096Z,97620.41
2023-01-15T06:48:41.761Z,97609.09
2023-01-15T06:51:44.260Z,97612.00
2023-01-15T06:54:46.894Z,97615.81
2023-01-15T06:57:49.571Z,97627.94
2023-01-15T07:00:57.568Z,97622.19
2023-01-15T07:04:00.284Z,97624.47
2023-01-15T07:07:02.912Z,97624.25
2023-01-15T07:10:06.239Z,97618.81
2023-01-15T07:13:10.184Z,97613.75
2023-01-15T07:16:27.954Z,97618.00
2023-01-15T07:19:30.742Z,97615.31
2023-01-15T07:22:33.515Z,97611.56
2023-01-15T07:25:36.333Z,97619.69
2023-01-15T07:28:39.079Z,97619.34
2023-01-15T07:31:42.255Z,97616.75
2023-01-15T07:34:44.954Z,97620.66
2023-01-15T07:37:52.783Z,97617.94
2023-01-15T07:41:18.970Z,97624.31
2023-01-15T07:44:40.783Z,97624.09
2023-01-15T07:48:01.838Z,97626.38
2023-01-15T07:51:04.621Z,97622.16
2023-01-15T07:54:07.567Z,97606.38
2023-01-15T07:57:10.704Z,97621.56
2023-01-15T08:00:16.136Z,97624.16
2023-01-15T08:03:19.087Z,97614.53
2023-01-15T08:06:21.824Z,97633.19
2023-01-15T08:09:26.244Z,97625.88
2023-01-15T08:12:47.568Z,97620.44
2023-01-15T08:15:50.436Z,97623.31
2023-01-15T08:18:53.214Z,97612.09
2023-01-15T08:21:57.332Z,97608.91
2023-01-15T08:25:00.536Z,97611.75
2023-01-15T08:28:03.867Z,97613.88
2023-01-15T08:31:08.884Z,97598.28
2023-01-15T08:34:12.227Z,97611.72
2023-01-15T08:37:15.451Z,97617.78
2023-01-15T08:40:18.518Z,97621.31
2023-01-15T08:43:21.395Z,97625.88
2023-01-15T08:46:24.040Z,97630.63
2023-01-15T08:49:26.880Z,97617.16
2023-01-15T08:52:29.755Z,97622.06
2023-01-15T08:55:33.135Z,97623.25
2023-01-15T08:58:36.036Z,97632.22
2023-01-15T09:01:39.135Z,97633.38
2023-01-15T09:04:42.269Z,97637.66
2023-01-15T09:07:45.127Z,97625.34
2023-01-15T09:10:48.619Z,97631.75
2023-01-15T09:13:54.753Z,97627.03
2023-01-15T09:16:58.171Z,97623.47
2023-01-15T09:20:01.480Z,97618.16
2023-01-15T09:23:04.202Z,97618.50
2023-01-15T09:26:08.300Z,97613.91
2023-01-15T09:29:11.189Z,97611.44
2023-01-15T09:32:14.082Z,97615.09
2023-01-15T09:35:17.084Z,97624.94
2023-01-15T09:38:21.566Z,97628.38
2023-01-15T09:41:44.224Z,97626.47
2023-01-15T09:44:46.839Z,97623.63
2023-01-15T09:47:52.175Z,97621.28
2023-01-15T09:50:54.754Z,97621.28
2023-01-15T09:54:18.193Z,97615.91
2023-01-15T09:57:22.931Z,97607.75
2023-01-15T10:00:27.907Z,97615.91
2023-01-15T10:03:42.284Z,97615.72
2023-01-15T10:06:46.081Z,97616.88
2023-01-15T10:10:03.992Z,97607.28
2023-01-15T10:13:24.502Z,97595.25
2023-01-15T10:16:30.351Z,97586.66
2023-01-15T10:19:44.139Z,97570.09
2023-01-15T10:22:51.026Z,97561.25
2023-01-15T10:26:22.270Z,97558.22
2023-01-15T10:29:47.176Z,97548.25
2023-01-15T10:33:03.081Z,97535.75
2023-01-15T10:36:21.683Z,97531.75
2023-01-15T10:39:34.317Z,97517.34
2023-01-15T10:42:40.875Z,97515.97
2023-01-15T10:45:54.321Z,97515.78
2023-01-15T10:49:00.061Z,97514.25
2023-01-15T10:52:25.977Z,97503.34
2023-01-15T10:55:37.437Z,97498.41
2023-01-15T10:58:55.535Z,97496.25
2023-01-15T11:02:00.220Z,97488.44
2023-01-15T11:05:03.731Z,97476.41
2023-01-15T11:08:45.207Z,97474.50
2023-01-15T11:11:59.873Z,97469.97
2023-01-15T11:15:33.221Z,97464.72
2023-01-15T11:18:59.145Z,97452.66
2023-01-15T11:22:09.955Z,97453.50
2023-01-15T11:25:12.952Z,97456.69
2023-01-15T11:28:16.661Z,97452.03
2023-01-15T11:31:20.032Z,97452.84
2023-01-15T11:34:24.473Z,97453.19
2023-01-15T11:37:28.210Z,97445.25
2023-01-15T11:40:30.892Z,97428.84
2023-01-15T11:43:52.164Z,97432.88
2023-01-15T11:47:14.411Z,97423.78
2023-01-15T11:50:36.939Z,97430.72
2023-01-15T11:53:50.763Z,97427.22
2023-01-15T11:56:55.178Z,97427.63
2023-01-15T11:59:58.479Z,97428.88
2023-01-15T12:03:06.337Z,97423.38
2023-01-15T12:06:12.354Z,97424.31
2023-01-15T12:09:34.960Z,97412.97
2023-01-15T12:13:04.822Z,97425.53
2023-01-15T12:16:19.337Z,97417.56
2023-01-15T12:19:40.664Z,97410.19
2023-01-15T12:23:08.893Z,97412.72
2023-01-15T12:26:28.022Z,97414.63
2023-01-15T12:29:39.874Z,97410.47
2023-01-15T12:32:46.104Z,97412.72
2023-01-15T12:35:57.122Z,97402.69
2023-01-15T12:39:10.629Z,97398.75
2023-01-15T12:42:36.387Z,97393.56
2023-01-15T12:45:43.168Z,97388.19
2023-01-15T12:48:51.797Z,97383.84
2023-01-15T12:52:07.515Z,97376.38
2023-01-15T12:55:16.680Z,97370.81
2023-01-15T12:58:55.183Z,97372.50
2023-01-15T13:02:53.966Z,97365.91
2023-01-15T13:06:00.585Z,97357.13
2023-01-15T13:09:09.316Z,97353.28
2023-01-15T13:12:16.041Z,97354.09
2023-01-15T13:15:21.052Z,97348.63
2023-01-15T13:18:53.061Z,97347.50
2023-01-15T13:22:00.629Z,97345.88
2023-01-15T13:25:29.636Z,97352.84
2023-01-15T13:28:52.505Z,97351.13
2023-01-15T13:32:07.590Z,97339.72
2023-01-15T13:35:32.940Z,97338.63
2023-01-15T13:38:40.988Z,97340.94
2023-01-15T13:42:02.846Z,97344.91
2023-01-15T13:45:26.869Z,97350.78
2023-01-15T13:48:36.816Z,97345.69
2023-01-15T13:51:43.778Z,97336.25
2023-01-15T13:54:50.159Z,97341.13
2023-01-15T13:57:53.211Z,97339.34
2023-01-15T14:01:09.138Z,97337.28
2023-01-15T14:04:15.718Z,97334.31
2023-01-15T14:07:35.402Z,97336.09
2023-01-15T14:10:39.636Z,97340.06
2023-01-15T14:13:47.249Z,97340.31
2023-01-15T14:17:02.827Z,97329.94
2023-01-15T14:20:12.084Z,97328.28
2023-01-15T14:23:34.818Z,97323.84
2023-01-15T14:26:56.471Z,97323.59
2023-01-15T14:30:18.045Z,97321.38
2023-01-15T14:33:58.329Z,97314.97
2023-01-15T14:37:08.474Z,97311.13
2023-01-15T14:40:20.244Z,97300.56
2023-01-15T14:43:26.205Z,97299.75
2023-01-15T14:46:34.462Z,97302.09
2023-01-15T14:49:50.174Z,97302.56
2023-01-15T14:52:55.218Z,97309.78
2023-01-15T14:56:13.196Z,97304.44
2023-01-15T14:59:20.608Z,97304.44
2023-01-15T15:02:31.826Z,97300.63
2023-01-15T15:05:35.467Z,97307.50
2023-01-15T15:08:41.688Z,97302.03
2023-01-15T15:12:06.262Z,97294.91
2023-01-15T15:15:27.536Z,97283.66
2023-01-15T15:18:30.424Z,97296.50
2023-01-15T15:21:44.208Z,97285.53
2023-01-15T15:24:50.337Z,97274.31
2023-01-15T15:28:06.964Z,97278.84
2023-01-15T15:31:11.301Z,97278.44
2023-01-15T15:34:26.928Z,97281.06
2023-01-15T15:37:29.880Z,97282.78
2023-01-15T15:40:35.348Z,97286.25
2023-01-15T15:44:07.730Z,97283.91
2023-01-15T15:47:47.221Z,97273.66
2023-01-15T15:50:49.901Z,97272.69
2023-01-15T15:54:21.542Z,97275.41
2023-01-15T15:57:24.307Z,97277.06
2023-01-15T16:00:41.696Z,97277.31
2023-01-15T16:03:48.408Z,97283.59
2023-01-15T16:06:52.851Z,97293.34
2023-01-15T16:10:01.060Z,97293.19
2023-01-15T16:13:07.937Z,97297.03
2023-01-15T16:16:11.871Z,97299.75
2023-01-15T16:19:19.809Z,97303.88
2023-01-15T16:22:23.189Z,97313.97
2023-01-15T16:25:31.103Z,97310.66
2023-01-15T16:28:40.459Z,97312.09
2023-01-15T16:31:43.484Z,97313.47
2023-01-15T16:34:46.481Z,97314.38
2023-01-15T16:37:51.613Z,97330.06
2023-01-15T16:40:54.734Z,97326.50
2023-01-15T16:44:00.599Z,97336.53
2023-01-15T16:47:04.470Z,97352.81
2023-01-15T16:50:22.740Z,97358.28
2023-01-15T16:53:38.567Z,97360.44
2023-01-15T16:56:42.453Z,97355.75
2023-01-15T16:59:45.129Z,97363.16
2023-01-15T17:02:47.945Z,97355.81
2023-01-15T17:05:53.962Z,97366.91
2023-01-15T17:08:58.266Z,97378.25
2023-01-15T17:12:07.290Z,97378.06
2023-01-15T17:15:20.526Z,97383.44
2023-01-15T17:18:27.932Z,97383.44
2023-01-15T17:21:31.840Z,97384.84
2023-01-15T17:24:34.935Z,97381.53
2023-01-15T17:27:37.704Z,97379.91
2023-01-15T17:30:40.348Z,97393.25
2023-01-15T17:33:43.197Z,97377.34
2023-01-15T17:36:46.203Z,97382.44
2023-01-15T17:39:48.916Z,97395.13
2023-01-15T17:42:52.194Z,97396.50
2023-01-15T17:45:55.367Z,97401.44
2023-01-15T17:48:58.193Z,97393.59
2023-01-15T17:52:01.816Z,97390.28
2023-01-15T17:55:23.621Z,97403.84
2023-01-15T17:58:44.953Z,97393.94
2023-01-15T18:02:07.032Z,97394.19
2023-01-15T18:05:27.336Z,97394.19
2023-01-15T18:08:30.600Z,97413.91
2023-01-15T18:11:33.324Z,97401.38
2023-01-15T18:14:36.016Z,97408.53
2023-01-15T18:17:38.747Z,97411.13
2023-01-15T18:20:41.436Z,97414.22
2023-01-15T18:23:44.228Z,97410.47
2023-01-15T18:26:47.014Z,97421.91
2023-01-15T18:29:49.853Z,97415.38
2023-01-15T18:32:53.421Z,97424.78
2023-01-15T18:36:04.292Z,97407.47
2023-01-15T18:39:08.106Z,97393.44
2023-01-15T18:42:11.136Z,97397.47
2023-01-15T18:45:32.504Z,97407.66
2023-01-15T18:48:35.293Z,97407.47
2023-01-15T18:51:38.070Z,97411.34
2023-01-15T18:54:40.763Z,97412.78
2023-01-15T18:57:43.571Z,97407.28
2023-01-15T19:00:46.614Z,97416.03
2023-01-15T19:03:49.477Z,97409.44
2023-01-15T19:06:52.665Z,97411.72
2023-01-15T19:09:55.357Z,97414.25
2023-01-15T19:12:58.387Z,97407.97
2023-01-15T19:16:19.783Z,97409.94
2023-01-15T19:19:22.827Z,97409.81
2023-01-15T19:22:43.900Z,97404.59
2023-01-15T19:25:49.723Z,97421.09
2023-01-15T19:28:52.532Z,97419.59
2023-01-15T19:31:55.219Z,97419.44
2023-01-15T19:34:59.723Z,97413.53
2023-01-15T19:38:03.583Z,97415.13
2023-01-15T19:41:31.555Z,97407.06
2023-01-15T19:44:52.900Z,97407.06
2023-01-15T19:48:14.414Z,97418.06
2023-01-15T19:51:17.216Z,97412.88
2023-01-15T19:54:40.124Z,97417.56
2023-01-15T19:57:44.663Z,97418.69
2023-01-15T20:00:49.047Z,97410.47
2023-01-15T20:03:51.793Z,97418.94
2023-01-15T20:06:54.567Z,97422.00
2023-01-15T20:09:57.279Z,97423.75
2023-01-15T20:13:18.429Z,97413.34
2023-01-15T20:16:22.725Z,97411.59
2023-01-15T20:19:25.721Z,97397.78
2023-01-15T20:22:32.005Z,97400.44
2023-01-15T20:25:35.911Z,97380.91
2023-01-15T20:28:41.287Z,97396.25
2023-01-15T20:31:44.251Z,97398.66
2023-01-15T20:34:47.369Z,97398.66
2023-01-15T20:37:51.130Z,97403.75
2023-01-15T20:40:53.980Z,97397.88
2023-01-15T20:44:15.419Z,97402.88
2023-01-15T20:47:36.645Z,97398.28
2023-01-15T20:51:01.163Z,97408.25
2023-01-15T20:54:04.464Z,97407.91
2023-01-15T20:57:07.539Z,97401.94
2023-01-15T21:00:15.034Z,97393.00
2023-01-15T21:03:18.478Z,97379.63
2023-01-15T21:06:21.123Z,97378.19
2023-01-15T21:09:23.759Z,97397.19
2023-01-15T21:12:26.651Z,97389.84
2023-01-15T21:15:29.883Z,97395.03
2023-01-15T21:18:35.837Z,97395.75
2023-01-15T21:21:38.937Z,97400.50
2023-01-15T21:24:41.714Z,97400.63
2023-01-15T21:27:44.665Z,97400.94
2023-01-15T21:30:47.302Z,97397.19
2023-01-15T21:33:53.208Z,97395.75
2023-01-15T21:36:55.800Z,97397.75
2023-01-15T21:39:58.442Z,97396.00
2023-01-15T21:43:19.491Z,97376.59
2023-01-15T21:46:23.681Z,97382.06
2023-01-15T21:49:26.543Z,97380.47
2023-01-15T21:52:30.083Z,97387.72
2023-01-15T21:55:32.922Z,97384.56
2023-01-15T21:58:39.625Z,97372.78
2023-01-15T22:01:42.338Z,97378.31
2023-01-15T22:04:45.148Z,97383.91
2023-01-15T22:07:47.720Z,97381.34
2023-01-15T22:10:50.559Z,97367.59
2023-01-15T22:13:53.196Z,97377.22
2023-01-15T22:16:57.532Z,97361.78
2023-01-15T22:20:00.060Z,97365.81
2023-01-15T22:23:02.577Z,97366.56
2023-01-15T22:26:05.384Z,97359.75
2023-01-15T22:29:08.116Z,97364.09
2023-01-15T22:32:13.341Z,97356.44
2023-01-15T22:35:15.952Z,97354.78
2023-01-15T22:38:18.485Z,97351.75
2023-01-15T22:41:41.084Z,97343.84
2023-01-15T22:44:45.154Z,97338.44
2023-01-15T22:47:47.667Z,97335.38
2023-01-15T22:50:50.175Z,97339.19
2023-01-15T22:53:57.018Z,97343.69
2023-01-15T22:56:59.596Z,97334.25
2023-01-15T23:00:02.595Z,97337.53
2023-01-15T23:03:05.459Z,97333.03
2023-01-15T23:06:10.255Z,97322.06
2023-01-15T23:09:13.393Z,97319.47
2023-01-15T23:12:15.944Z,97323.84
2023-01-15T23:15:18.499Z,97316.63
2023-01-15T23:18:22.096Z,97318.78
2023-01-15T23:21:26.043Z,97311.69
2023-01-15T23:24:28.558Z,97295.25
2023-01-15T23:27:31.119Z,97315.09
2023-01-15T23:30:33.696Z,97307.03
2023-01-15T23:33:36.331Z,97299.38
2023-01-15T23:36:39.226Z,97290.47
2023-01-15T23:39:41.852Z,97279.00
2023-01-15T23:43:02.942Z,97270.09
2023-01-15T23:46:26.785Z,97280.34
2023-01-15T23:49:29.466Z,97285.69
2023-01-15T23:52:32.189Z,97295.91
2023-01-15T23:55:34.683Z,97292.81
2023-01-15T23:58:39.470Z,97280.16
